Red Lake, Canada
Current Conditions -  °F | °C
As of 9:00 PM on Wednesday 22 Oct 2014 (Local Time) from CYRL Reporting Station
Overcast Overcast  
Wind Chill: 55°   Ceiling: 3800
Heat Index: 55°   Visibility: 15mi
Dew Point: 45°   Wind: 10mph
Humidity: 67%   Direction: 160°SSE
Pressure: 29.81"   Gusts: NA
Location:  51.09°N, 93.97°W
Report Text: CYRL 230200Z 16009KT 15SM SCT026 OVC038 13/07 A2981 RMK SC3SC5 LAST STFD OBS/ NEXT 23 0900UTC SLP104 DENSITY ALT 1500FT
Loading
Personal Weather Stations






























Interactive Weather Map
Tropical Storm Tracking
New forecast layout! Learn more

10-Day Weather Forecast

Advertisements
Track Severe Weather on mobile